Monte — V2FS2 — position and weather

sailwx.info

Track history (hours):
 
Tides and Currents Weather Stations Pressure Air Temp Water Temp Dewpoint Dewpoint Depression Visibility Wind Speed Wind Dir Waves Ship Positions

Monte

Last reported at 2014-Dec-20 09:33 UTC. Time now 2014-Dec-20 09:44 UTC.
Position N 56°02' E 012°41'.

Length 104 m; draft 3.6 m.

Type: Cargo ship. MMSI: 305777000.

Date/timePositionNaut miles runAvg speedWind from/ knotsBaromVisibWave heightAir tempDewpointWater temp
2014-Dec-20 09:33N 56°02' E 012°41'0 0.0
2014-Dec-20 08:33N 56°02' E 012°41'0 0.0
2014-Dec-20 07:33N 56°02' E 012°41'0 0.0
2014-Dec-20 06:33N 56°02' E 012°41'0 0.0
2014-Dec-20 05:33N 56°02' E 012°41'0 0.0
2014-Dec-20 04:33N 56°02' E 012°41'0 0.0
2014-Dec-20 03:33N 56°02' E 012°41'0 0.0
2014-Dec-20 02:33N 56°02' E 012°41'0 0.0
2014-Dec-20 01:33N 56°02' E 012°41'0 0.0
2014-Dec-20 00:33N 56°02' E 012°41'0 0.0
2014-Dec-19 23:33N 56°02' E 012°41'0 0.0
2014-Dec-19 22:33N 56°02' E 012°41'0 0.0
2014-Dec-19 21:33N 56°02' E 012°41'0 0.0
2014-Dec-19 20:33N 56°02' E 012°41'0 0.0
2014-Dec-19 19:33N 56°02' E 012°41'0 0.0
2014-Dec-19 18:30N 56°02' E 012°41'0 0.0
2014-Dec-19 17:33N 56°02' E 012°41'0 0.0
2014-Dec-19 16:33N 56°02' E 012°41'0 0.0
2014-Dec-19 15:32N 56°02' E 012°41'0 0.0
2014-Dec-19 14:32N 56°02' E 012°41'0 0.1
2014-Dec-19 13:33N 56°02' E 012°41'5 5.4
2014-Dec-19 12:33N 55°56' E 012°44'9 8.9
2014-Dec-19 11:33N 55°48' E 012°43'9 9.3
2014-Dec-19 10:33N 55°38' E 012°42'9 9.0
2014-Dec-19 09:33N 55°29' E 012°42'1010.1
2014-Dec-19 08:33N 55°19' E 012°41'1111.1
2014-Dec-19 07:33N 55°08' E 012°40'29 9.5
2014-Dec-19 04:28N 54°40' E 012°26'1310.9
2014-Dec-19 03:15N 54°28' E 012°15'810.9
2014-Dec-19 02:28N 54°22' E 012°04'1010.3
2014-Dec-19 01:32N 54°16' E 011°51'1110.4
2014-Dec-19 00:29N 54°10' E 011°36'8 9.1
2014-Dec-18 23:33N 54°04' E 011°27'7 6.5
2014-Dec-18 22:33N 53°57' E 011°23'4 4.0
2014-Dec-18 21:31N 53°54' E 011°27'0 0.0
2014-Dec-18 20:31N 53°54' E 011°27'0 0.0
2014-Dec-18 19:31N 53°54' E 011°27'0 0.0
2014-Dec-18 18:31N 53°54' E 011°27'0 0.0
2014-Dec-18 17:31N 53°54' E 011°27'0 0.0
2014-Dec-18 16:31N 53°54' E 011°27'0 0.0
2014-Dec-18 15:31N 53°54' E 011°27'0 0.0
2014-Dec-18 14:31N 53°54' E 011°27'0 0.0
2014-Dec-18 13:31N 53°54' E 011°27'0 0.0
2014-Dec-18 12:31N 53°54' E 011°27'0 0.1
2014-Dec-18 11:31N 53°54' E 011°28'0 0.0
2014-Dec-18 10:31N 53°54' E 011°28'0 0.0
2014-Dec-18 09:31N 53°54' E 011°28'0 0.0
2014-Dec-18 08:31N 53°54' E 011°28'0 0.0
2014-Dec-18 07:31N 53°54' E 011°27'0 0.0
2014-Dec-18 06:31N 53°54' E 011°27'0 0.0
2014-Dec-18 05:31N 53°54' E 011°27'0 0.0
2014-Dec-18 04:31N 53°54' E 011°27'0 0.0
2014-Dec-18 03:31N 53°54' E 011°27'0 0.0
2014-Dec-18 02:31N 53°54' E 011°27'0 0.0
2014-Dec-18 01:31N 53°54' E 011°27'0 0.0
2014-Dec-18 00:31N 53°54' E 011°27'0 0.0
2014-Dec-17 23:31N 53°54' E 011°27'0 0.0
2014-Dec-17 22:31N 53°54' E 011°27'0 0.0
2014-Dec-17 21:28N 53°54' E 011°27'0 0.0
2014-Dec-17 20:31N 53°54' E 011°27'0 0.0
2014-Dec-17 19:31N 53°54' E 011°27'0 0.0
2014-Dec-17 18:31N 53°54' E 011°27'0 0.0
2014-Dec-17 17:31N 53°54' E 011°27'0 0.0
2014-Dec-17 16:31N 53°54' E 011°27'0 0.0
2014-Dec-17 15:31N 53°54' E 011°27'0 0.0
2014-Dec-17 14:31N 53°54' E 011°27'0 0.0
2014-Dec-17 13:34N 53°54' E 011°27'0 0.0
2014-Dec-17 12:33N 53°54' E 011°27'0 0.0
2014-Dec-17 11:33N 53°54' E 011°27'0 0.0
2014-Dec-17 10:33N 53°54' E 011°27'0 0.0
2014-Dec-17 09:33N 53°54' E 011°27'0 0.0
2014-Dec-17 08:33N 53°54' E 011°27'0 0.0
2014-Dec-17 07:33N 53°54' E 011°27'0 0.0
2014-Dec-17 06:33N 53°54' E 011°27'0 0.0
2014-Dec-17 05:33N 53°54' E 011°27'0 0.0
2014-Dec-17 04:33N 53°54' E 011°27'0 0.0
2014-Dec-17 03:33N 53°54' E 011°27'0 0.0
2014-Dec-17 02:33N 53°54' E 011°27'0 0.0
2014-Dec-17 01:30N 53°54' E 011°27'0 0.0
2014-Dec-17 00:30N 53°54' E 011°27'0 0.0
2014-Dec-16 23:24N 53°54' E 011°27'0 0.0
2014-Dec-16 22:24N 53°54' E 011°27'0 0.0
2014-Dec-16 21:33N 53°54' E 011°27'0 0.0
2014-Dec-16 20:33N 53°54' E 011°27'0 0.0
2014-Dec-16 19:33N 53°54' E 011°27'0 0.0
2014-Dec-16 18:33N 53°54' E 011°27'0 0.0
2014-Dec-16 17:30N 53°54' E 011°27'0 0.0
2014-Dec-16 16:27N 53°54' E 011°27'0 0.0
2014-Dec-16 15:30N 53°54' E 011°27'0 0.0
2014-Dec-16 14:33N 53°54' E 011°27'0 0.0
2014-Dec-16 13:33N 53°54' E 011°27'0 0.0
2014-Dec-16 12:33N 53°54' E 011°27'0 0.0
2014-Dec-16 11:30N 53°54' E 011°27'0 0.0
2014-Dec-16 10:30N 53°54' E 011°27'0 0.0
2014-Dec-16 09:33N 53°54' E 011°27'0 0.0
2014-Dec-16 08:33N 53°54' E 011°27'0 0.0
2014-Dec-16 07:33N 53°54' E 011°27'0 0.0
2014-Dec-16 06:33N 53°54' E 011°27'0 0.0
2014-Dec-16 04:24N 53°54' E 011°27'0 0.0
2014-Dec-16 03:24N 53°54' E 011°27'0 0.0
2014-Dec-16 02:26N 53°54' E 011°27'4 4.3
2014-Dec-16 01:33N 53°57' E 011°24'10 8.1
2014-Dec-16 00:16N 54°08' E 011°26'710.1
2014-Dec-15 23:33N 54°15' E 011°24'31 7.6
2014-Dec-15 19:29N 54°34' E 010°43'9 9.9
2014-Dec-15 18:33N 54°31' E 010°27'9 9.1
2014-Dec-15 17:33N 54°26' E 010°14'6 5.6
2014-Dec-15 16:33N 54°22' E 010°09'5 4.6
2014-Dec-15 15:33N 54°21' E 010°01'5 5.0
2014-Dec-15 14:33N 54°22' E 009°52'15 7.4
2014-Dec-15 12:32N 54°12' E 009°33'5 4.6
2014-Dec-15 11:33N 54°10' E 009°26'7 7.0
2014-Dec-15 10:33N 54°04' E 009°19'8 8.2
2014-Dec-15 09:33N 53°57' E 009°14'4 4.4
2014-Dec-15 08:33N 53°54' E 009°09'5 4.8
2014-Dec-15 07:33N 53°51' E 009°01'1010.1
2014-Dec-15 06:33N 53°52' E 008°44'9 9.2
2014-Dec-15 05:33N 53°58' E 008°33'1010.3
2014-Dec-15 04:33N 53°59' E 008°16'1010.1
2014-Dec-15 03:33N 53°56' E 007°59'7 7.2
2014-Dec-15 02:33N 53°50' E 008°07'7 6.9
2014-Dec-15 01:33N 53°45' E 008°13'8 8.0
2014-Dec-15 00:33N 53°39' E 008°24'10 9.9
2014-Dec-14 23:33N 53°32' E 008°34'1010.5
2014-Dec-14 22:33N 53°22' E 008°30'1110.8
2014-Dec-14 21:33N 53°11' E 008°33'8 8.2
2014-Dec-14 20:33N 53°06' E 008°44'0 0.0
2014-Dec-14 19:31N 53°06' E 008°44'0 0.0
2014-Dec-14 18:31N 53°06' E 008°44'0 0.0
2014-Dec-14 17:31N 53°06' E 008°44'0 0.0
2014-Dec-14 16:31N 53°06' E 008°44'0 0.0
2014-Dec-14 15:31N 53°06' E 008°44'0 0.0
2014-Dec-14 14:31N 53°06' E 008°44'0 0.0
2014-Dec-14 13:31N 53°06' E 008°44'0 0.0
2014-Dec-14 12:31N 53°06' E 008°44'0 0.0
2014-Dec-14 11:31N 53°06' E 008°44'0 0.0
2014-Dec-14 10:31N 53°06' E 008°44'0 0.0
2014-Dec-14 09:31N 53°06' E 008°44'0 0.0
2014-Dec-14 08:31N 53°06' E 008°44'0 0.0
2014-Dec-14 07:31N 53°06' E 008°44'0 0.0
2014-Dec-14 06:31N 53°06' E 008°44'0 0.0
2014-Dec-14 05:31N 53°06' E 008°44'0 0.0
2014-Dec-14 04:31N 53°06' E 008°44'0 0.0
2014-Dec-14 03:31N 53°06' E 008°44'0 0.0
2014-Dec-14 02:31N 53°06' E 008°44'0 0.0
2014-Dec-14 01:31N 53°06' E 008°44'0 0.0
2014-Dec-14 00:31N 53°06' E 008°44'0 0.0
2014-Dec-13 23:31N 53°06' E 008°44'0 0.0
2014-Dec-13 22:33N 53°06' E 008°44'0 0.0
2014-Dec-13 21:33N 53°06' E 008°44'0 0.0
2014-Dec-13 20:33N 53°06' E 008°44'0 0.0
2014-Dec-13 19:33N 53°06' E 008°44'0 0.0
2014-Dec-13 18:33N 53°06' E 008°44'0 0.0
2014-Dec-13 17:33N 53°06' E 008°44'0 0.0
2014-Dec-13 16:33N 53°06' E 008°44'0 0.0
2014-Dec-13 15:33N 53°06' E 008°44'0 0.0
2014-Dec-13 14:33N 53°06' E 008°44'0 0.0
2014-Dec-13 13:33N 53°06' E 008°44'0 0.0
2014-Dec-13 12:33N 53°06' E 008°44'0 0.0
2014-Dec-13 11:33N 53°06' E 008°44'0 0.0
2014-Dec-13 10:33N 53°06' E 008°44'0 0.0
2014-Dec-13 09:33N 53°06' E 008°44'0 0.0
2014-Dec-13 08:33N 53°06' E 008°44'0 0.0
2014-Dec-13 07:33N 53°06' E 008°44'0 0.0
2014-Dec-13 06:33N 53°06' E 008°44'0 0.0
2014-Dec-13 05:33N 53°06' E 008°44'0 0.0
2014-Dec-13 04:33N 53°06' E 008°44'0 0.0
2014-Dec-13 03:33N 53°06' E 008°44'0 0.0
2014-Dec-13 02:33N 53°06' E 008°44'0 0.0
2014-Dec-13 01:33N 53°06' E 008°44'0 0.0
2014-Dec-13 00:33N 53°06' E 008°44'0 0.0
2014-Dec-12 23:33N 53°06' E 008°44'0 0.0
2014-Dec-12 22:33N 53°06' E 008°44'0 0.0
2014-Dec-12 21:33N 53°06' E 008°44'0 0.0
2014-Dec-12 20:33N 53°06' E 008°44'0 0.0
2014-Dec-12 19:33N 53°06' E 008°44'0 0.0
2014-Dec-12 18:33N 53°06' E 008°44'0 0.0
2014-Dec-12 17:33N 53°06' E 008°44'0 0.0
2014-Dec-12 16:33N 53°06' E 008°44'0 0.0
2014-Dec-12 15:33N 53°06' E 008°44'0 0.0
2014-Dec-12 14:33N 53°06' E 008°44'0 0.0
2014-Dec-12 13:33N 53°06' E 008°44'0 0.0
2014-Dec-12 12:33N 53°06' E 008°44'0 0.0
2014-Dec-12 11:33N 53°06' E 008°44'0 0.0
2014-Dec-12 10:32N 53°06' E 008°44'0 0.0
2014-Dec-12 09:32N 53°06' E 008°44'0 0.0
2014-Dec-12 08:32N 53°06' E 008°44'0 0.0
2014-Dec-12 07:32N 53°06' E 008°44'0 0.0
2014-Dec-12 06:32N 53°06' E 008°44'0 0.0
2014-Dec-12 05:32N 53°06' E 008°44'0 0.0
2014-Dec-12 04:32N 53°06' E 008°44'0 0.0
2014-Dec-12 03:32N 53°06' E 008°44'0 0.0
2014-Dec-12 02:32N 53°06' E 008°44'0 0.0
2014-Dec-12 01:32N 53°06' E 008°44'0 0.0
2014-Dec-12 00:32N 53°06' E 008°44'0 0.0
2014-Dec-11 23:32N 53°06' E 008°44'0 0.0
2014-Dec-11 22:32N 53°06' E 008°44'0 0.0
2014-Dec-11 21:32N 53°06' E 008°44'0 0.0
2014-Dec-11 20:32N 53°06' E 008°44'0 0.0
2014-Dec-11 19:32N 53°06' E 008°44'0 0.0
2014-Dec-11 18:32N 53°06' E 008°44'0 0.0
2014-Dec-11 17:32N 53°06' E 008°44'0 0.0
2014-Dec-11 16:32N 53°06' E 008°44'0 0.0
2014-Dec-11 15:32N 53°06' E 008°44'0 0.0
2014-Dec-11 14:32N 53°06' E 008°44'0 0.0
2014-Dec-11 13:32N 53°06' E 008°44'0 0.0
2014-Dec-11 12:32N 53°06' E 008°44'0 0.0
2014-Dec-11 11:32N 53°06' E 008°44'0 0.0
2014-Dec-11 10:32N 53°06' E 008°44'0 0.0
2014-Dec-11 09:32N 53°06' E 008°44'0 0.0
2014-Dec-11 08:32N 53°06' E 008°44'0 0.0
2014-Dec-11 07:32N 53°06' E 008°44'0 0.0
2014-Dec-11 06:32N 53°06' E 008°44'0 0.0
2014-Dec-11 05:32N 53°06' E 008°44'0 0.0
2014-Dec-11 04:32N 53°06' E 008°44'0 0.0
2014-Dec-11 03:32N 53°06' E 008°44'0 0.0
2014-Dec-11 02:32N 53°06' E 008°44'0 0.0
2014-Dec-11 01:32N 53°06' E 008°44'0 0.0
2014-Dec-11 00:32N 53°06' E 008°44'0 0.0
2014-Dec-10 23:31N 53°06' E 008°44'0 0.0
2014-Dec-10 22:31N 53°06' E 008°44'0 0.0
2014-Dec-10 21:31N 53°06' E 008°44'0 0.0
2014-Dec-10 20:31N 53°06' E 008°44'0 0.0
2014-Dec-10 19:31N 53°06' E 008°44'0 0.0
2014-Dec-10 18:31N 53°06' E 008°44'0 0.0
2014-Dec-10 17:31N 53°06' E 008°44'0 0.0
2014-Dec-10 16:31N 53°06' E 008°44'0 0.0
2014-Dec-10 15:31N 53°06' E 008°44'0 0.0
2014-Dec-10 14:31N 53°06' E 008°44'0 0.0
2014-Dec-10 13:31N 53°06' E 008°44'0 0.0
2014-Dec-10 12:31N 53°06' E 008°44'0 0.0
2014-Dec-10 11:31N 53°06' E 008°44'0 0.0
2014-Dec-10 10:31N 53°06' E 008°44'  
Track history (hours):
 
Tides and Currents Weather Stations Pressure Air Temp Water Temp Dewpoint Dewpoint Depression Visibility Wind Speed Wind Dir Waves Ship Positions

Monte

Last reported at 2014-Dec-20 09:33 UTC. Time now 2014-Dec-20 09:44 UTC.
Position N 56°02' E 012°41'.

Length 104 m; draft 3.6 m.

Type: Cargo ship. MMSI: 305777000.

Date/timePositionNaut miles runAvg speedWind from/ knotsBaromVisibWave heightAir tempDewpointWater temp
2014-Dec-20 09:33N 56°02' E 012°41'0 0.0
2014-Dec-20 08:33N 56°02' E 012°41'0 0.0
2014-Dec-20 07:33N 56°02' E 012°41'0 0.0
2014-Dec-20 06:33N 56°02' E 012°41'0 0.0
2014-Dec-20 05:33N 56°02' E 012°41'0 0.0
2014-Dec-20 04:33N 56°02' E 012°41'0 0.0
2014-Dec-20 03:33N 56°02' E 012°41'0 0.0
2014-Dec-20 02:33N 56°02' E 012°41'0 0.0
2014-Dec-20 01:33N 56°02' E 012°41'0 0.0
2014-Dec-20 00:33N 56°02' E 012°41'0 0.0
2014-Dec-19 23:33N 56°02' E 012°41'0 0.0
2014-Dec-19 22:33N 56°02' E 012°41'0 0.0
2014-Dec-19 21:33N 56°02' E 012°41'0 0.0
2014-Dec-19 20:33N 56°02' E 012°41'0 0.0
2014-Dec-19 19:33N 56°02' E 012°41'0 0.0
2014-Dec-19 18:30N 56°02' E 012°41'0 0.0
2014-Dec-19 17:33N 56°02' E 012°41'0 0.0
2014-Dec-19 16:33N 56°02' E 012°41'0 0.0
2014-Dec-19 15:32N 56°02' E 012°41'0 0.0
2014-Dec-19 14:32N 56°02' E 012°41'0 0.1
2014-Dec-19 13:33N 56°02' E 012°41'5 5.4
2014-Dec-19 12:33N 55°56' E 012°44'9 8.9
2014-Dec-19 11:33N 55°48' E 012°43'9 9.3
2014-Dec-19 10:33N 55°38' E 012°42'9 9.0
2014-Dec-19 09:33N 55°29' E 012°42'1010.1
2014-Dec-19 08:33N 55°19' E 012°41'1111.1
2014-Dec-19 07:33N 55°08' E 012°40'29 9.5
2014-Dec-19 04:28N 54°40' E 012°26'1310.9
2014-Dec-19 03:15N 54°28' E 012°15'810.9
2014-Dec-19 02:28N 54°22' E 012°04'1010.3
2014-Dec-19 01:32N 54°16' E 011°51'1110.4
2014-Dec-19 00:29N 54°10' E 011°36'8 9.1
2014-Dec-18 23:33N 54°04' E 011°27'7 6.5
2014-Dec-18 22:33N 53°57' E 011°23'4 4.0
2014-Dec-18 21:31N 53°54' E 011°27'0 0.0
2014-Dec-18 20:31N 53°54' E 011°27'0 0.0
2014-Dec-18 19:31N 53°54' E 011°27'0 0.0
2014-Dec-18 18:31N 53°54' E 011°27'0 0.0
2014-Dec-18 17:31N 53°54' E 011°27'0 0.0
2014-Dec-18 16:31N 53°54' E 011°27'0 0.0
2014-Dec-18 15:31N 53°54' E 011°27'0 0.0
2014-Dec-18 14:31N 53°54' E 011°27'0 0.0
2014-Dec-18 13:31N 53°54' E 011°27'0 0.0
2014-Dec-18 12:31N 53°54' E 011°27'0 0.1
2014-Dec-18 11:31N 53°54' E 011°28'0 0.0
2014-Dec-18 10:31N 53°54' E 011°28'0 0.0
2014-Dec-18 09:31N 53°54' E 011°28'0 0.0
2014-Dec-18 08:31N 53°54' E 011°28'0 0.0
2014-Dec-18 07:31N 53°54' E 011°27'0 0.0
2014-Dec-18 06:31N 53°54' E 011°27'0 0.0
2014-Dec-18 05:31N 53°54' E 011°27'0 0.0
2014-Dec-18 04:31N 53°54' E 011°27'0 0.0
2014-Dec-18 03:31N 53°54' E 011°27'0 0.0
2014-Dec-18 02:31N 53°54' E 011°27'0 0.0
2014-Dec-18 01:31N 53°54' E 011°27'0 0.0
2014-Dec-18 00:31N 53°54' E 011°27'0 0.0
2014-Dec-17 23:31N 53°54' E 011°27'0 0.0
2014-Dec-17 22:31N 53°54' E 011°27'0 0.0
2014-Dec-17 21:28N 53°54' E 011°27'0 0.0
2014-Dec-17 20:31N 53°54' E 011°27'0 0.0
2014-Dec-17 19:31N 53°54' E 011°27'0 0.0
2014-Dec-17 18:31N 53°54' E 011°27'0 0.0
2014-Dec-17 17:31N 53°54' E 011°27'0 0.0
2014-Dec-17 16:31N 53°54' E 011°27'0 0.0
2014-Dec-17 15:31N 53°54' E 011°27'0 0.0
2014-Dec-17 14:31N 53°54' E 011°27'0 0.0
2014-Dec-17 13:34N 53°54' E 011°27'0 0.0
2014-Dec-17 12:33N 53°54' E 011°27'0 0.0
2014-Dec-17 11:33N 53°54' E 011°27'0 0.0
2014-Dec-17 10:33N 53°54' E 011°27'0 0.0
2014-Dec-17 09:33N 53°54' E 011°27'0 0.0
2014-Dec-17 08:33N 53°54' E 011°27'0 0.0
2014-Dec-17 07:33N 53°54' E 011°27'0 0.0
2014-Dec-17 06:33N 53°54' E 011°27'0 0.0
2014-Dec-17 05:33N 53°54' E 011°27'0 0.0
2014-Dec-17 04:33N 53°54' E 011°27'0 0.0
2014-Dec-17 03:33N 53°54' E 011°27'0 0.0
2014-Dec-17 02:33N 53°54' E 011°27'0 0.0
2014-Dec-17 01:30N 53°54' E 011°27'0 0.0
2014-Dec-17 00:30N 53°54' E 011°27'0 0.0
2014-Dec-16 23:24N 53°54' E 011°27'0 0.0
2014-Dec-16 22:24N 53°54' E 011°27'0 0.0
2014-Dec-16 21:33N 53°54' E 011°27'0 0.0
2014-Dec-16 20:33N 53°54' E 011°27'0 0.0
2014-Dec-16 19:33N 53°54' E 011°27'0 0.0
2014-Dec-16 18:33N 53°54' E 011°27'0 0.0
2014-Dec-16 17:30N 53°54' E 011°27'0 0.0
2014-Dec-16 16:27N 53°54' E 011°27'0 0.0
2014-Dec-16 15:30N 53°54' E 011°27'0 0.0
2014-Dec-16 14:33N 53°54' E 011°27'0 0.0
2014-Dec-16 13:33N 53°54' E 011°27'0 0.0
2014-Dec-16 12:33N 53°54' E 011°27'0 0.0
2014-Dec-16 11:30N 53°54' E 011°27'0 0.0
2014-Dec-16 10:30N 53°54' E 011°27'0 0.0
2014-Dec-16 09:33N 53°54' E 011°27'0 0.0
2014-Dec-16 08:33N 53°54' E 011°27'0 0.0
2014-Dec-16 07:33N 53°54' E 011°27'0 0.0
2014-Dec-16 06:33N 53°54' E 011°27'0 0.0
2014-Dec-16 04:24N 53°54' E 011°27'0 0.0
2014-Dec-16 03:24N 53°54' E 011°27'0 0.0
2014-Dec-16 02:26N 53°54' E 011°27'4 4.3
2014-Dec-16 01:33N 53°57' E 011°24'10 8.1
2014-Dec-16 00:16N 54°08' E 011°26'710.1
2014-Dec-15 23:33N 54°15' E 011°24'31 7.6
2014-Dec-15 19:29N 54°34' E 010°43'9 9.9
2014-Dec-15 18:33N 54°31' E 010°27'9 9.1
2014-Dec-15 17:33N 54°26' E 010°14'6 5.6
2014-Dec-15 16:33N 54°22' E 010°09'5 4.6
2014-Dec-15 15:33N 54°21' E 010°01'5 5.0
2014-Dec-15 14:33N 54°22' E 009°52'15 7.4
2014-Dec-15 12:32N 54°12' E 009°33'5 4.6
2014-Dec-15 11:33N 54°10' E 009°26'7 7.0
2014-Dec-15 10:33N 54°04' E 009°19'8 8.2
2014-Dec-15 09:33N 53°57' E 009°14'4 4.4
2014-Dec-15 08:33N 53°54' E 009°09'5 4.8
2014-Dec-15 07:33N 53°51' E 009°01'1010.1
2014-Dec-15 06:33N 53°52' E 008°44'9 9.2
2014-Dec-15 05:33N 53°58' E 008°33'1010.3
2014-Dec-15 04:33N 53°59' E 008°16'1010.1
2014-Dec-15 03:33N 53°56' E 007°59'7 7.2
2014-Dec-15 02:33N 53°50' E 008°07'7 6.9
2014-Dec-15 01:33N 53°45' E 008°13'8 8.0
2014-Dec-15 00:33N 53°39' E 008°24'10 9.9
2014-Dec-14 23:33N 53°32' E 008°34'1010.5
2014-Dec-14 22:33N 53°22' E 008°30'1110.8
2014-Dec-14 21:33N 53°11' E 008°33'8 8.2
2014-Dec-14 20:33N 53°06' E 008°44'0 0.0
2014-Dec-14 19:31N 53°06' E 008°44'0 0.0
2014-Dec-14 18:31N 53°06' E 008°44'0 0.0
2014-Dec-14 17:31N 53°06' E 008°44'0 0.0
2014-Dec-14 16:31N 53°06' E 008°44'0 0.0
2014-Dec-14 15:31N 53°06' E 008°44'0 0.0
2014-Dec-14 14:31N 53°06' E 008°44'0 0.0
2014-Dec-14 13:31N 53°06' E 008°44'0 0.0
2014-Dec-14 12:31N 53°06' E 008°44'0 0.0
2014-Dec-14 11:31N 53°06' E 008°44'0 0.0
2014-Dec-14 10:31N 53°06' E 008°44'0 0.0
2014-Dec-14 09:31N 53°06' E 008°44'0 0.0
2014-Dec-14 08:31N 53°06' E 008°44'0 0.0
2014-Dec-14 07:31N 53°06' E 008°44'0 0.0
2014-Dec-14 06:31N 53°06' E 008°44'0 0.0
2014-Dec-14 05:31N 53°06' E 008°44'0 0.0
2014-Dec-14 04:31N 53°06' E 008°44'0 0.0
2014-Dec-14 03:31N 53°06' E 008°44'0 0.0
2014-Dec-14 02:31N 53°06' E 008°44'0 0.0
2014-Dec-14 01:31N 53°06' E 008°44'0 0.0
2014-Dec-14 00:31N 53°06' E 008°44'0 0.0
2014-Dec-13 23:31N 53°06' E 008°44'0 0.0
2014-Dec-13 22:33N 53°06' E 008°44'0 0.0
2014-Dec-13 21:33N 53°06' E 008°44'0 0.0
2014-Dec-13 20:33N 53°06' E 008°44'0 0.0
2014-Dec-13 19:33N 53°06' E 008°44'0 0.0
2014-Dec-13 18:33N 53°06' E 008°44'0 0.0
2014-Dec-13 17:33N 53°06' E 008°44'0 0.0
2014-Dec-13 16:33N 53°06' E 008°44'0 0.0
2014-Dec-13 15:33N 53°06' E 008°44'0 0.0
2014-Dec-13 14:33N 53°06' E 008°44'0 0.0
2014-Dec-13 13:33N 53°06' E 008°44'0 0.0
2014-Dec-13 12:33N 53°06' E 008°44'0 0.0
2014-Dec-13 11:33N 53°06' E 008°44'0 0.0
2014-Dec-13 10:33N 53°06' E 008°44'0 0.0
2014-Dec-13 09:33N 53°06' E 008°44'0 0.0
2014-Dec-13 08:33N 53°06' E 008°44'0 0.0
2014-Dec-13 07:33N 53°06' E 008°44'0 0.0
2014-Dec-13 06:33N 53°06' E 008°44'0 0.0
2014-Dec-13 05:33N 53°06' E 008°44'0 0.0
2014-Dec-13 04:33N 53°06' E 008°44'0 0.0
2014-Dec-13 03:33N 53°06' E 008°44'0 0.0
2014-Dec-13 02:33N 53°06' E 008°44'0 0.0
2014-Dec-13 01:33N 53°06' E 008°44'0 0.0
2014-Dec-13 00:33N 53°06' E 008°44'0 0.0
2014-Dec-12 23:33N 53°06' E 008°44'0 0.0
2014-Dec-12 22:33N 53°06' E 008°44'0 0.0
2014-Dec-12 21:33N 53°06' E 008°44'0 0.0
2014-Dec-12 20:33N 53°06' E 008°44'0 0.0
2014-Dec-12 19:33N 53°06' E 008°44'0 0.0
2014-Dec-12 18:33N 53°06' E 008°44'0 0.0
2014-Dec-12 17:33N 53°06' E 008°44'0 0.0
2014-Dec-12 16:33N 53°06' E 008°44'0 0.0
2014-Dec-12 15:33N 53°06' E 008°44'0 0.0
2014-Dec-12 14:33N 53°06' E 008°44'0 0.0
2014-Dec-12 13:33N 53°06' E 008°44'0 0.0
2014-Dec-12 12:33N 53°06' E 008°44'0 0.0
2014-Dec-12 11:33N 53°06' E 008°44'0 0.0
2014-Dec-12 10:32N 53°06' E 008°44'0 0.0
2014-Dec-12 09:32N 53°06' E 008°44'0 0.0
2014-Dec-12 08:32N 53°06' E 008°44'0 0.0
2014-Dec-12 07:32N 53°06' E 008°44'0 0.0
2014-Dec-12 06:32N 53°06' E 008°44'0 0.0
2014-Dec-12 05:32N 53°06' E 008°44'0 0.0
2014-Dec-12 04:32N 53°06' E 008°44'0 0.0
2014-Dec-12 03:32N 53°06' E 008°44'0 0.0
2014-Dec-12 02:32N 53°06' E 008°44'0 0.0
2014-Dec-12 01:32N 53°06' E 008°44'0 0.0
2014-Dec-12 00:32N 53°06' E 008°44'0 0.0
2014-Dec-11 23:32N 53°06' E 008°44'0 0.0
2014-Dec-11 22:32N 53°06' E 008°44'0 0.0
2014-Dec-11 21:32N 53°06' E 008°44'0 0.0
2014-Dec-11 20:32N 53°06' E 008°44'0 0.0
2014-Dec-11 19:32N 53°06' E 008°44'0 0.0
2014-Dec-11 18:32N 53°06' E 008°44'0 0.0
2014-Dec-11 17:32N 53°06' E 008°44'0 0.0
2014-Dec-11 16:32N 53°06' E 008°44'0 0.0
2014-Dec-11 15:32N 53°06' E 008°44'0 0.0
2014-Dec-11 14:32N 53°06' E 008°44'0 0.0
2014-Dec-11 13:32N 53°06' E 008°44'0 0.0
2014-Dec-11 12:32N 53°06' E 008°44'0 0.0
2014-Dec-11 11:32N 53°06' E 008°44'0 0.0
2014-Dec-11 10:32N 53°06' E 008°44'0 0.0
2014-Dec-11 09:32N 53°06' E 008°44'0 0.0
2014-Dec-11 08:32N 53°06' E 008°44'0 0.0
2014-Dec-11 07:32N 53°06' E 008°44'0 0.0
2014-Dec-11 06:32N 53°06' E 008°44'0 0.0
2014-Dec-11 05:32N 53°06' E 008°44'0 0.0
2014-Dec-11 04:32N 53°06' E 008°44'0 0.0
2014-Dec-11 03:32N 53°06' E 008°44'0 0.0
2014-Dec-11 02:32N 53°06' E 008°44'0 0.0
2014-Dec-11 01:32N 53°06' E 008°44'0 0.0
2014-Dec-11 00:32N 53°06' E 008°44'0 0.0
2014-Dec-10 23:31N 53°06' E 008°44'0 0.0
2014-Dec-10 22:31N 53°06' E 008°44'0 0.0
2014-Dec-10 21:31N 53°06' E 008°44'0 0.0
2014-Dec-10 20:31N 53°06' E 008°44'0 0.0
2014-Dec-10 19:31N 53°06' E 008°44'0 0.0
2014-Dec-10 18:31N 53°06' E 008°44'0 0.0
2014-Dec-10 17:31N 53°06' E 008°44'0 0.0
2014-Dec-10 16:31N 53°06' E 008°44'0 0.0
2014-Dec-10 15:31N 53°06' E 008°44'0 0.0
2014-Dec-10 14:31N 53°06' E 008°44'0 0.0
2014-Dec-10 13:31N 53°06' E 008°44'0 0.0
2014-Dec-10 12:31N 53°06' E 008°44'0 0.0
2014-Dec-10 11:31N 53°06' E 008°44'0 0.0
2014-Dec-10 10:31N 53°06' E 008°44'  

Dump ship's entire track history